sensor_id;sensor_type;location;lat;lon;timestamp;noise_LAeq;noise_LA_min;noise_LA_max;noise_LA01;noise_LA95
67306;Laerm;57661;51.436;5.978;2022-08-27T00:00:03;28.15;27.28;29.09;;
67306;Laerm;57661;51.436;5.978;2022-08-27T00:00:18;28.91;27.25;36.52;;
67306;Laerm;57661;51.436;5.978;2022-08-27T00:00:29;28.04;27.02;28.86;;
67306;Laerm;57661;51.436;5.978;2022-08-27T00:00:39;28.04;26.95;28.80;;
67306;Laerm;57661;51.436;5.978;2022-08-27T00:00:49;28.79;27.17;42.08;;
67306;Laerm;57661;51.436;5.978;2022-08-27T00:00:59;28.02;27.03;29.14;;
67306;Laerm;57661;51.436;5.978;2022-08-27T00:01:11;28.02;27.06;29.29;;
67306;Laerm;57661;51.436;5.978;2022-08-27T00:01:21;28.00;26.69;28.90;;
67306;Laerm;57661;51.436;5.978;2022-08-27T00:01:32;28.03;27.02;28.84;;
67306;Laerm;57661;51.436;5.978;2022-08-27T00:01:42;27.99;27.19;29.40;;
67306;Laerm;57661;51.436;5.978;2022-08-27T00:01:53;28.02;27.22;28.91;;
67306;Laerm;57661;51.436;5.978;2022-08-27T00:02:03;28.04;26.82;28.96;;
67306;Laerm;57661;51.436;5.978;2022-08-27T00:02:14;28.03;27.10;28.81;;
67306;Laerm;57661;51.436;5.978;2022-08-27T00:02:24;28.01;27.07;28.92;;
67306;Laerm;57661;51.436;5.978;2022-08-27T00:02:35;28.01;26.94;28.82;;
67306;Laerm;57661;51.436;5.978;2022-08-27T00:02:45;28.07;27.04;29.07;;
67306;Laerm;57661;51.436;5.978;2022-08-27T00:02:56;28.02;26.98;28.83;;
67306;Laerm;57661;51.436;5.978;2022-08-27T00:03:06;28.04;27.26;29.10;;
67306;Laerm;57661;51.436;5.978;2022-08-27T00:03:16;28.02;27.14;28.96;;
67306;Laerm;57661;51.436;5.978;2022-08-27T00:03:26;28.02;27.11;29.18;;
67306;Laerm;57661;51.436;5.978;2022-08-27T00:03:37;28.02;26.86;28.96;;
67306;Laerm;57661;51.436;5.978;2022-08-27T00:03:47;28.03;27.12;28.94;;
67306;Laerm;57661;51.436;5.978;2022-08-27T00:03:58;28.00;26.89;29.10;;
67306;Laerm;57661;51.436;5.978;2022-08-27T00:04:09;28.05;27.07;28.91;;
67306;Laerm;57661;51.436;5.978;2022-08-27T00:04:19;28.04;26.70;28.88;;
67306;Laerm;57661;51.436;5.978;2022-08-27T00:04:29;28.06;27.18;28.84;;
67306;Laerm;57661;51.436;5.978;2022-08-27T00:04:40;28.00;26.89;29.05;;
67306;Laerm;57661;51.436;5.978;2022-08-27T00:04:50;28.03;27.04;29.19;;
67306;Laerm;57661;51.436;5.978;2022-08-27T00:05:01;28.03;27.01;28.88;;
67306;Laerm;57661;51.436;5.978;2022-08-27T00:05:12;28.02;27.17;29.17;;
67306;Laerm;57661;51.436;5.978;2022-08-27T00:05:23;28.04;27.12;28.87;;
67306;Laerm;57661;51.436;5.978;2022-08-27T00:05:33;28.03;27.23;29.14;;
67306;Laerm;57661;51.436;5.978;2022-08-27T00:05:45;28.03;27.10;29.02;;
67306;Laerm;57661;51.436;5.978;2022-08-27T00:05:56;28.00;26.93;29.01;;
67306;Laerm;57661;51.436;5.978;2022-08-27T00:06:06;28.01;26.76;28.97;;
67306;Laerm;57661;51.436;5.978;2022-08-27T00:06:17;28.04;26.89;28.99;;
67306;Laerm;57661;51.436;5.978;2022-08-27T00:06:32;28.04;26.87;29.06;;
67306;Laerm;57661;51.436;5.978;2022-08-27T00:06:42;28.02;27.02;29.00;;
67306;Laerm;57661;51.436;5.978;2022-08-27T00:06:52;28.04;27.04;28.95;;
67306;Laerm;57661;51.436;5.978;2022-08-27T00:07:03;28.01;27.06;28.92;;
67306;Laerm;57661;51.436;5.978;2022-08-27T00:07:14;28.02;27.11;28.83;;
67306;Laerm;57661;51.436;5.978;2022-08-27T00:07:24;28.02;26.81;28.94;;
67306;Laerm;57661;51.436;5.978;2022-08-27T00:07:34;28.00;26.98;28.89;;
67306;Laerm;57661;51.436;5.978;2022-08-27T00:07:45;28.01;27.29;28.86;;
67306;Laerm;57661;51.436;5.978;2022-08-27T00:07:55;28.01;27.02;29.21;;
67306;Laerm;57661;51.436;5.978;2022-08-27T00:08:06;28.04;27.09;28.79;;
67306;Laerm;57661;51.436;5.978;2022-08-27T00:08:17;28.07;26.93;28.88;;
67306;Laerm;57661;51.436;5.978;2022-08-27T00:08:28;28.05;26.98;29.15;;
67306;Laerm;57661;51.436;5.978;2022-08-27T00:08:40;28.01;26.86;28.82;;
67306;Laerm;57661;51.436;5.978;2022-08-27T00:08:51;28.13;27.14;29.31;;
67306;Laerm;57661;51.436;5.978;2022-08-27T00:09:02;28.34;27.30;29.75;;
67306;Laerm;57661;51.436;5.978;2022-08-27T00:09:12;28.18;27.30;29.13;;
67306;Laerm;57661;51.436;5.978;2022-08-27T00:09:23;28.13;27.18;29.03;;
67306;Laerm;57661;51.436;5.978;2022-08-27T00:09:33;28.40;26.89;29.64;;
67306;Laerm;57661;51.436;5.978;2022-08-27T00:09:43;44.10;27.65;53.93;;
67306;Laerm;57661;51.436;5.978;2022-08-27T00:09:53;45.65;40.51;49.12;;
67306;Laerm;57661;51.436;5.978;2022-08-27T00:10:05;40.25;28.05;47.01;;
67306;Laerm;57661;51.436;5.978;2022-08-27T00:10:22;28.23;27.18;30.33;;
67306;Laerm;57661;51.436;5.978;2022-08-27T00:10:33;28.05;26.93;29.05;;
67306;Laerm;57661;51.436;5.978;2022-08-27T00:10:44;28.16;27.15;29.41;;
67306;Laerm;57661;51.436;5.978;2022-08-27T00:10:54;28.08;27.12;29.20;;
67306;Laerm;57661;51.436;5.978;2022-08-27T00:11:04;30.25;27.21;42.93;;
67306;Laerm;57661;51.436;5.978;2022-08-27T00:11:15;28.02;27.21;29.14;;
67306;Laerm;57661;51.436;5.978;2022-08-27T00:11:26;28.06;27.03;29.03;;
67306;Laerm;57661;51.436;5.978;2022-08-27T00:11:37;28.05;27.17;28.96;;
67306;Laerm;57661;51.436;5.978;2022-08-27T00:11:47;28.03;27.01;28.90;;
67306;Laerm;57661;51.436;5.978;2022-08-27T00:11:57;28.04;27.05;28.95;;
67306;Laerm;57661;51.436;5.978;2022-08-27T00:12:08;28.06;26.99;28.90;;
67306;Laerm;57661;51.436;5.978;2022-08-27T00:12:18;28.04;27.23;28.87;;
67306;Laerm;57661;51.436;5.978;2022-08-27T00:12:29;28.40;27.07;40.95;;
67306;Laerm;57661;51.436;5.978;2022-08-27T00:12:39;28.03;26.98;28.84;;
67306;Laerm;57661;51.436;5.978;2022-08-27T00:12:50;28.03;27.15;28.85;;
67306;Laerm;57661;51.436;5.978;2022-08-27T00:13:01;28.02;27.00;28.97;;
67306;Laerm;57661;51.436;5.978;2022-08-27T00:13:11;28.05;27.01;28.95;;
67306;Laerm;57661;51.436;5.978;2022-08-27T00:13:22;28.05;27.25;28.89;;
67306;Laerm;57661;51.436;5.978;2022-08-27T00:13:32;28.03;26.93;28.91;;
67306;Laerm;57661;51.436;5.978;2022-08-27T00:13:43;28.01;27.12;28.83;;
67306;Laerm;57661;51.436;5.978;2022-08-27T00:13:53;28.05;27.17;28.86;;
67306;Laerm;57661;51.436;5.978;2022-08-27T00:14:05;28.02;26.50;28.97;;
67306;Laerm;57661;51.436;5.978;2022-08-27T00:14:15;28.04;26.99;28.77;;
67306;Laerm;57661;51.436;5.978;2022-08-27T00:14:26;28.04;27.14;28.88;;
67306;Laerm;57661;51.436;5.978;2022-08-27T00:14:37;27.98;27.29;28.94;;
67306;Laerm;57661;51.436;5.978;2022-08-27T00:14:47;28.05;27.08;29.03;;
67306;Laerm;57661;51.436;5.978;2022-08-27T00:14:58;28.03;27.14;29.09;;
67306;Laerm;57661;51.436;5.978;2022-08-27T00:15:10;28.01;27.12;28.75;;
67306;Laerm;57661;51.436;5.978;2022-08-27T00:15:21;28.09;27.28;28.97;;
67306;Laerm;57661;51.436;5.978;2022-08-27T00:15:31;28.00;27.12;28.98;;
67306;Laerm;57661;51.436;5.978;2022-08-27T00:15:42;28.01;27.12;29.20;;
67306;Laerm;57661;51.436;5.978;2022-08-27T00:15:52;28.05;27.29;28.95;;
67306;Laerm;57661;51.436;5.978;2022-08-27T00:16:06;28.04;27.09;28.88;;
67306;Laerm;57661;51.436;5.978;2022-08-27T00:16:17;28.02;26.86;28.97;;
67306;Laerm;57661;51.436;5.978;2022-08-27T00:16:27;28.02;27.10;28.79;;
67306;Laerm;57661;51.436;5.978;2022-08-27T00:16:37;28.04;27.09;29.11;;
67306;Laerm;57661;51.436;5.978;2022-08-27T00:16:48;28.05;27.00;28.99;;
67306;Laerm;57661;51.436;5.978;2022-08-27T00:16:58;27.99;27.10;29.03;;
67306;Laerm;57661;51.436;5.978;2022-08-27T00:17:08;28.01;27.02;28.97;;
67306;Laerm;57661;51.436;5.978;2022-08-27T00:17:20;28.02;27.15;28.83;;
67306;Laerm;57661;51.436;5.978;2022-08-27T00:17:30;28.06;27.13;28.97;;
67306;Laerm;57661;51.436;5.978;2022-08-27T00:17:41;27.99;27.08;28.85;;
67306;Laerm;57661;51.436;5.978;2022-08-27T00:17:52;28.01;26.86;28.83;;
67306;Laerm;57661;51.436;5.978;2022-08-27T00:18:02;28.04;27.30;29.36;;
67306;Laerm;57661;51.436;5.978;2022-08-27T00:18:13;27.99;27.05;28.89;;
67306;Laerm;57661;51.436;5.978;2022-08-27T00:18:23;28.03;27.02;28.94;;
67306;Laerm;57661;51.436;5.978;2022-08-27T00:18:33;28.03;27.04;29.08;;
67306;Laerm;57661;51.436;5.978;2022-08-27T00:18:45;28.09;27.17;28.78;;
67306;Laerm;57661;51.436;5.978;2022-08-27T00:18:55;28.02;27.09;28.95;;
67306;Laerm;57661;51.436;5.978;2022-08-27T00:19:06;28.04;27.24;28.94;;
67306;Laerm;57661;51.436;5.978;2022-08-27T00:19:16;28.05;26.80;29.07;;
67306;Laerm;57661;51.436;5.978;2022-08-27T00:19:27;28.04;27.10;28.76;;
67306;Laerm;57661;51.436;5.978;2022-08-27T00:19:37;28.03;27.14;28.90;;
67306;Laerm;57661;51.436;5.978;2022-08-27T00:19:47;28.05;26.81;28.90;;
67306;Laerm;57661;51.436;5.978;2022-08-27T00:19:57;28.02;27.16;28.83;;
67306;Laerm;57661;51.436;5.978;2022-08-27T00:20:08;28.05;27.12;28.86;;
67306;Laerm;57661;51.436;5.978;2022-08-27T00:20:19;28.03;27.16;28.97;;
67306;Laerm;57661;51.436;5.978;2022-08-27T00:20:30;28.03;27.16;29.03;;
67306;Laerm;57661;51.436;5.978;2022-08-27T00:20:40;28.03;27.13;28.75;;
67306;Laerm;57661;51.436;5.978;2022-08-27T00:20:52;27.99;26.86;29.11;;
67306;Laerm;57661;51.436;5.978;2022-08-27T00:21:03;28.00;26.62;28.84;;
67306;Laerm;57661;51.436;5.978;2022-08-27T00:21:14;28.01;27.06;28.94;;
67306;Laerm;57661;51.436;5.978;2022-08-27T00:21:25;28.05;27.06;28.91;;
67306;Laerm;57661;51.436;5.978;2022-08-27T00:21:35;28.02;26.94;28.92;;
67306;Laerm;57661;51.436;5.978;2022-08-27T00:21:46;28.02;27.10;28.87;;
67306;Laerm;57661;51.436;5.978;2022-08-27T00:21:56;28.02;26.99;28.92;;
67306;Laerm;57661;51.436;5.978;2022-08-27T00:22:07;28.04;26.85;28.93;;
67306;Laerm;57661;51.436;5.978;2022-08-27T00:22:17;28.02;26.80;28.93;;
67306;Laerm;57661;51.436;5.978;2022-08-27T00:22:28;28.00;27.09;28.91;;
67306;Laerm;57661;51.436;5.978;2022-08-27T00:22:38;28.04;27.03;28.91;;
67306;Laerm;57661;51.436;5.978;2022-08-27T00:22:48;28.02;27.07;28.95;;
67306;Laerm;57661;51.436;5.978;2022-08-27T00:22:58;28.02;26.98;29.07;;
67306;Laerm;57661;51.436;5.978;2022-08-27T00:23:09;28.05;27.16;28.96;;
67306;Laerm;57661;51.436;5.978;2022-08-27T00:23:19;28.05;26.95;28.87;;
67306;Laerm;57661;51.436;5.978;2022-08-27T00:23:29;28.04;27.18;28.92;;
67306;Laerm;57661;51.436;5.978;2022-08-27T00:23:40;28.00;27.06;28.88;;
67306;Laerm;57661;51.436;5.978;2022-08-27T00:23:50;28.01;26.63;29.04;;
67306;Laerm;57661;51.436;5.978;2022-08-27T00:24:02;28.02;27.06;28.92;;
67306;Laerm;57661;51.436;5.978;2022-08-27T00:24:12;28.00;27.19;28.89;;
67306;Laerm;57661;51.436;5.978;2022-08-27T00:24:22;28.03;27.23;28.82;;
67306;Laerm;57661;51.436;5.978;2022-08-27T00:24:33;28.03;27.16;28.92;;
67306;Laerm;57661;51.436;5.978;2022-08-27T00:24:44;28.01;26.85;28.82;;
67306;Laerm;57661;51.436;5.978;2022-08-27T00:24:54;28.02;27.15;28.87;;
67306;Laerm;57661;51.436;5.978;2022-08-27T00:25:04;28.04;27.21;29.04;;
67306;Laerm;57661;51.436;5.978;2022-08-27T00:25:15;28.05;27.04;31.31;;
67306;Laerm;57661;51.436;5.978;2022-08-27T00:25:25;28.02;27.18;29.28;;
67306;Laerm;57661;51.436;5.978;2022-08-27T00:25:35;28.04;27.06;29.18;;
67306;Laerm;57661;51.436;5.978;2022-08-27T00:25:45;28.24;27.04;29.75;;
67306;Laerm;57661;51.436;5.978;2022-08-27T00:25:56;28.07;27.14;28.96;;
67306;Laerm;57661;51.436;5.978;2022-08-27T00:26:06;28.00;27.07;28.89;;
67306;Laerm;57661;51.436;5.978;2022-08-27T00:26:17;28.04;27.15;28.89;;
67306;Laerm;57661;51.436;5.978;2022-08-27T00:26:27;28.00;27.15;29.13;;
67306;Laerm;57661;51.436;5.978;2022-08-27T00:26:38;28.03;27.03;28.97;;
67306;Laerm;57661;51.436;5.978;2022-08-27T00:26:48;28.00;27.05;28.78;;
67306;Laerm;57661;51.436;5.978;2022-08-27T00:27:02;28.05;27.05;29.12;;
67306;Laerm;57661;51.436;5.978;2022-08-27T00:27:13;28.26;26.77;30.44;;
67306;Laerm;57661;51.436;5.978;2022-08-27T00:27:23;28.04;27.04;28.94;;
67306;Laerm;57661;51.436;5.978;2022-08-27T00:27:33;28.03;26.99;29.01;;
67306;Laerm;57661;51.436;5.978;2022-08-27T00:27:44;28.03;27.07;28.86;;
67306;Laerm;57661;51.436;5.978;2022-08-27T00:27:54;28.02;27.24;28.77;;
67306;Laerm;57661;51.436;5.978;2022-08-27T00:28:04;28.06;26.96;29.17;;
67306;Laerm;57661;51.436;5.978;2022-08-27T00:28:15;28.04;27.08;28.97;;
67306;Laerm;57661;51.436;5.978;2022-08-27T00:28:26;28.01;26.78;29.03;;
67306;Laerm;57661;51.436;5.978;2022-08-27T00:28:36;28.03;26.92;28.81;;
67306;Laerm;57661;51.436;5.978;2022-08-27T00:28:47;28.00;27.06;29.00;;
67306;Laerm;57661;51.436;5.978;2022-08-27T00:28:57;28.00;27.11;28.92;;
67306;Laerm;57661;51.436;5.978;2022-08-27T00:29:07;28.04;26.81;28.98;;
67306;Laerm;57661;51.436;5.978;2022-08-27T00:29:18;28.00;26.94;28.88;;
67306;Laerm;57661;51.436;5.978;2022-08-27T00:29:29;28.00;27.00;29.06;;
67306;Laerm;57661;51.436;5.978;2022-08-27T00:29:39;28.01;27.18;28.81;;
67306;Laerm;57661;51.436;5.978;2022-08-27T00:29:49;28.02;27.19;29.02;;
67306;Laerm;57661;51.436;5.978;2022-08-27T00:30:00;28.01;27.19;28.99;;
67306;Laerm;57661;51.436;5.978;2022-08-27T00:30:15;28.02;27.11;28.90;;
67306;Laerm;57661;51.436;5.978;2022-08-27T00:30:25;27.99;27.11;28.97;;
67306;Laerm;57661;51.436;5.978;2022-08-27T00:30:36;28.02;27.14;28.87;;
67306;Laerm;57661;51.436;5.978;2022-08-27T00:30:46;28.03;27.17;28.98;;
67306;Laerm;57661;51.436;5.978;2022-08-27T00:30:56;28.04;26.87;29.01;;
67306;Laerm;57661;51.436;5.978;2022-08-27T00:31:06;28.33;26.90;35.41;;
67306;Laerm;57661;51.436;5.978;2022-08-27T00:31:17;28.05;27.12;29.31;;
67306;Laerm;57661;51.436;5.978;2022-08-27T00:31:27;28.02;26.67;28.71;;
67306;Laerm;57661;51.436;5.978;2022-08-27T00:31:37;28.01;27.05;28.90;;
67306;Laerm;57661;51.436;5.978;2022-08-27T00:31:48;28.02;27.02;29.05;;
67306;Laerm;57661;51.436;5.978;2022-08-27T00:31:58;28.04;27.18;28.85;;
67306;Laerm;57661;51.436;5.978;2022-08-27T00:32:08;28.06;27.11;29.14;;
67306;Laerm;57661;51.436;5.978;2022-08-27T00:32:19;28.02;26.85;28.95;;
67306;Laerm;57661;51.436;5.978;2022-08-27T00:32:29;28.07;27.20;29.15;;
67306;Laerm;57661;51.436;5.978;2022-08-27T00:32:40;28.09;27.00;29.02;;
67306;Laerm;57661;51.436;5.978;2022-08-27T00:32:50;30.11;27.22;36.55;;
67306;Laerm;57661;51.436;5.978;2022-08-27T00:33:01;34.31;27.79;42.87;;
67306;Laerm;57661;51.436;5.978;2022-08-27T00:33:13;32.63;27.80;40.10;;
67306;Laerm;57661;51.436;5.978;2022-08-27T00:33:23;28.22;27.22;29.25;;
67306;Laerm;57661;51.436;5.978;2022-08-27T00:33:34;28.06;27.16;28.86;;
67306;Laerm;57661;51.436;5.978;2022-08-27T00:33:44;28.05;27.09;29.09;;
67306;Laerm;57661;51.436;5.978;2022-08-27T00:33:54;27.99;26.95;29.04;;
67306;Laerm;57661;51.436;5.978;2022-08-27T00:34:05;28.08;27.04;29.00;;
67306;Laerm;57661;51.436;5.978;2022-08-27T00:34:15;28.02;27.19;29.05;;
67306;Laerm;57661;51.436;5.978;2022-08-27T00:34:25;28.01;27.12;28.85;;
67306;Laerm;57661;51.436;5.978;2022-08-27T00:34:36;28.01;26.87;28.96;;
67306;Laerm;57661;51.436;5.978;2022-08-27T00:34:46;28.00;27.10;28.77;;
67306;Laerm;57661;51.436;5.978;2022-08-27T00:34:57;28.04;27.24;29.05;;
67306;Laerm;57661;51.436;5.978;2022-08-27T00:35:08;28.03;27.08;28.94;;
67306;Laerm;57661;51.436;5.978;2022-08-27T00:35:19;28.00;26.91;29.05;;
67306;Laerm;57661;51.436;5.978;2022-08-27T00:35:29;27.99;27.02;28.79;;
67306;Laerm;57661;51.436;5.978;2022-08-27T00:35:40;28.05;27.17;29.15;;
67306;Laerm;57661;51.436;5.978;2022-08-27T00:35:50;28.00;27.00;28.91;;
67306;Laerm;57661;51.436;5.978;2022-08-27T00:36:01;28.05;27.09;29.01;;
67306;Laerm;57661;51.436;5.978;2022-08-27T00:36:12;28.02;27.18;29.05;;
67306;Laerm;57661;51.436;5.978;2022-08-27T00:36:23;28.01;27.00;28.92;;
67306;Laerm;57661;51.436;5.978;2022-08-27T00:36:33;28.04;27.01;28.83;;
67306;Laerm;57661;51.436;5.978;2022-08-27T00:36:43;28.31;27.23;29.17;;
67306;Laerm;57661;51.436;5.978;2022-08-27T00:36:54;28.16;27.25;29.04;;
67306;Laerm;57661;51.436;5.978;2022-08-27T00:37:04;28.12;27.21;29.01;;
67306;Laerm;57661;51.436;5.978;2022-08-27T00:37:15;28.14;26.89;28.95;;
67306;Laerm;57661;51.436;5.978;2022-08-27T00:37:25;28.16;27.39;29.33;;
67306;Laerm;57661;51.436;5.978;2022-08-27T00:37:36;42.25;27.65;53.63;;
67306;Laerm;57661;51.436;5.978;2022-08-27T00:37:46;43.01;39.66;46.22;;
67306;Laerm;57661;51.436;5.978;2022-08-27T00:37:56;41.84;37.83;45.18;;
67306;Laerm;57661;51.436;5.978;2022-08-27T00:38:07;40.62;28.71;45.81;;
67306;Laerm;57661;51.436;5.978;2022-08-27T00:38:18;28.47;27.13;35.85;;
67306;Laerm;57661;51.436;5.978;2022-08-27T00:38:28;28.06;27.13;28.92;;
67306;Laerm;57661;51.436;5.978;2022-08-27T00:38:39;28.02;26.91;28.83;;
67306;Laerm;57661;51.436;5.978;2022-08-27T00:38:50;28.00;27.09;28.83;;
67306;Laerm;57661;51.436;5.978;2022-08-27T00:39:00;28.02;27.17;28.79;;
67306;Laerm;57661;51.436;5.978;2022-08-27T00:39:11;28.03;27.11;28.85;;
67306;Laerm;57661;51.436;5.978;2022-08-27T00:39:22;28.05;26.83;29.01;;
67306;Laerm;57661;51.436;5.978;2022-08-27T00:39:32;28.02;27.05;28.92;;
67306;Laerm;57661;51.436;5.978;2022-08-27T00:39:42;28.03;27.22;28.96;;
67306;Laerm;57661;51.436;5.978;2022-08-27T00:39:53;28.00;26.74;28.92;;
67306;Laerm;57661;51.436;5.978;2022-08-27T00:40:04;28.03;26.82;28.92;;
67306;Laerm;57661;51.436;5.978;2022-08-27T00:40:17;28.02;26.98;29.04;;
67306;Laerm;57661;51.436;5.978;2022-08-27T00:40:28;28.04;26.92;29.32;;
67306;Laerm;57661;51.436;5.978;2022-08-27T00:40:39;28.00;26.97;28.77;;
67306;Laerm;57661;51.436;5.978;2022-08-27T00:40:49;28.04;26.59;28.90;;
67306;Laerm;57661;51.436;5.978;2022-08-27T00:41:00;28.03;27.21;28.80;;
67306;Laerm;57661;51.436;5.978;2022-08-27T00:41:10;28.00;26.80;28.89;;
67306;Laerm;57661;51.436;5.978;2022-08-27T00:41:21;28.02;27.05;28.90;;
67306;Laerm;57661;51.436;5.978;2022-08-27T00:41:32;28.02;26.98;28.89;;
67306;Laerm;57661;51.436;5.978;2022-08-27T00:41:42;28.04;27.11;28.90;;
67306;Laerm;57661;51.436;5.978;2022-08-27T00:41:52;28.02;26.97;29.07;;
67306;Laerm;57661;51.436;5.978;2022-08-27T00:42:03;28.02;27.02;28.94;;
67306;Laerm;57661;51.436;5.978;2022-08-27T00:42:14;28.01;26.99;28.82;;
67306;Laerm;57661;51.436;5.978;2022-08-27T00:42:24;28.06;26.46;28.82;;
67306;Laerm;57661;51.436;5.978;2022-08-27T00:42:35;27.99;26.89;28.80;;
67306;Laerm;57661;51.436;5.978;2022-08-27T00:42:45;28.03;26.92;28.73;;
67306;Laerm;57661;51.436;5.978;2022-08-27T00:42:56;28.02;27.07;29.03;;
67306;Laerm;57661;51.436;5.978;2022-08-27T00:43:06;28.04;27.08;29.88;;
67306;Laerm;57661;51.436;5.978;2022-08-27T00:43:20;27.99;27.03;28.80;;
67306;Laerm;57661;51.436;5.978;2022-08-27T00:43:41;28.07;27.01;32.95;;
67306;Laerm;57661;51.436;5.978;2022-08-27T00:44:02;28.02;27.28;28.90;;
67306;Laerm;57661;51.436;5.978;2022-08-27T00:44:13;28.03;27.23;28.79;;
67306;Laerm;57661;51.436;5.978;2022-08-27T00:44:23;28.00;26.96;28.88;;
67306;Laerm;57661;51.436;5.978;2022-08-27T00:44:34;28.01;26.98;28.81;;
67306;Laerm;57661;51.436;5.978;2022-08-27T00:44:44;28.01;26.87;28.99;;
67306;Laerm;57661;51.436;5.978;2022-08-27T00:44:54;27.99;27.18;28.75;;
67306;Laerm;57661;51.436;5.978;2022-08-27T00:45:05;28.02;27.07;28.87;;
67306;Laerm;57661;51.436;5.978;2022-08-27T00:45:16;28.00;27.02;28.86;;
67306;Laerm;57661;51.436;5.978;2022-08-27T00:45:27;28.01;27.12;29.00;;
67306;Laerm;57661;51.436;5.978;2022-08-27T00:45:40;28.00;27.09;28.98;;
67306;Laerm;57661;51.436;5.978;2022-08-27T00:45:52;28.01;27.04;28.99;;
67306;Laerm;57661;51.436;5.978;2022-08-27T00:46:05;28.01;27.07;29.16;;
67306;Laerm;57661;51.436;5.978;2022-08-27T00:46:19;28.02;27.17;28.78;;
67306;Laerm;57661;51.436;5.978;2022-08-27T00:46:44;28.03;27.11;29.04;;
67306;Laerm;57661;51.436;5.978;2022-08-27T00:46:57;28.01;26.94;28.96;;
67306;Laerm;57661;51.436;5.978;2022-08-27T00:47:11;28.00;27.06;28.90;;
67306;Laerm;57661;51.436;5.978;2022-08-27T00:47:24;28.04;27.08;28.91;;
67306;Laerm;57661;51.436;5.978;2022-08-27T00:47:36;28.02;27.01;28.84;;
67306;Laerm;57661;51.436;5.978;2022-08-27T00:47:53;28.04;27.10;28.84;;
67306;Laerm;57661;51.436;5.978;2022-08-27T00:48:05;28.02;27.18;29.01;;
67306;Laerm;57661;51.436;5.978;2022-08-27T00:48:16;28.01;26.98;29.00;;
67306;Laerm;57661;51.436;5.978;2022-08-27T00:48:27;28.03;27.33;28.86;;
67306;Laerm;57661;51.436;5.978;2022-08-27T00:48:39;28.01;26.88;29.14;;
67306;Laerm;57661;51.436;5.978;2022-08-27T00:48:50;28.03;27.09;28.88;;
67306;Laerm;57661;51.436;5.978;2022-08-27T00:49:03;28.02;27.12;28.94;;
67306;Laerm;57661;51.436;5.978;2022-08-27T00:49:22;28.03;27.00;28.96;;
67306;Laerm;57661;51.436;5.978;2022-08-27T00:49:36;28.02;26.86;28.94;;
67306;Laerm;57661;51.436;5.978;2022-08-27T00:49:55;28.03;27.24;29.12;;
67306;Laerm;57661;51.436;5.978;2022-08-27T00:50:08;28.05;27.19;29.10;;
67306;Laerm;57661;51.436;5.978;2022-08-27T00:50:24;28.06;26.93;29.06;;
67306;Laerm;57661;51.436;5.978;2022-08-27T00:50:39;28.02;27.04;28.90;;
67306;Laerm;57661;51.436;5.978;2022-08-27T00:50:51;28.02;27.19;28.81;;
67306;Laerm;57661;51.436;5.978;2022-08-27T00:51:02;28.04;27.10;28.99;;
67306;Laerm;57661;51.436;5.978;2022-08-27T00:51:13;28.00;27.03;28.79;;
67306;Laerm;57661;51.436;5.978;2022-08-27T00:51:24;28.07;26.73;28.91;;
67306;Laerm;57661;51.436;5.978;2022-08-27T00:51:35;28.00;27.14;28.89;;
67306;Laerm;57661;51.436;5.978;2022-08-27T00:51:48;28.03;27.05;28.87;;
67306;Laerm;57661;51.436;5.978;2022-08-27T00:52:05;28.02;27.05;28.93;;
67306;Laerm;57661;51.436;5.978;2022-08-27T00:52:27;28.02;27.03;28.88;;
67306;Laerm;57661;51.436;5.978;2022-08-27T00:52:41;28.01;26.96;29.08;;
67306;Laerm;57661;51.436;5.978;2022-08-27T00:52:56;28.02;26.79;28.90;;
67306;Laerm;57661;51.436;5.978;2022-08-27T00:53:13;28.01;26.90;29.33;;
67306;Laerm;57661;51.436;5.978;2022-08-27T00:53:24;27.98;27.06;28.82;;
67306;Laerm;57661;51.436;5.978;2022-08-27T00:53:35;28.03;27.17;28.77;;
67306;Laerm;57661;51.436;5.978;2022-08-27T00:53:46;28.01;27.04;28.85;;
67306;Laerm;57661;51.436;5.978;2022-08-27T00:53:57;27.99;26.86;28.91;;
67306;Laerm;57661;51.436;5.978;2022-08-27T00:54:08;28.03;27.25;28.97;;
67306;Laerm;57661;51.436;5.978;2022-08-27T00:54:19;28.19;26.82;29.25;;
67306;Laerm;57661;51.436;5.978;2022-08-27T00:54:30;28.19;27.07;29.74;;
67306;Laerm;57661;51.436;5.978;2022-08-27T00:54:41;28.06;27.03;28.95;;
67306;Laerm;57661;51.436;5.978;2022-08-27T00:54:52;28.01;26.86;28.80;;
67306;Laerm;57661;51.436;5.978;2022-08-27T00:55:17;28.03;27.04;28.81;;
67306;Laerm;57661;51.436;5.978;2022-08-27T00:56:13;28.01;26.97;29.04;;
67306;Laerm;57661;51.436;5.978;2022-08-27T00:56:26;28.07;27.19;28.84;;
67306;Laerm;57661;51.436;5.978;2022-08-27T00:56:39;28.24;27.23;29.30;;
67306;Laerm;57661;51.436;5.978;2022-08-27T00:56:54;28.00;26.91;28.91;;
67306;Laerm;57661;51.436;5.978;2022-08-27T00:57:04;28.00;27.03;28.84;;
67306;Laerm;57661;51.436;5.978;2022-08-27T00:57:15;28.00;27.08;29.13;;
67306;Laerm;57661;51.436;5.978;2022-08-27T00:57:26;27.99;26.90;28.85;;
67306;Laerm;57661;51.436;5.978;2022-08-27T00:57:36;27.97;27.16;28.97;;
67306;Laerm;57661;51.436;5.978;2022-08-27T00:57:50;28.02;27.15;28.95;;
67306;Laerm;57661;51.436;5.978;2022-08-27T00:58:04;28.00;27.09;28.81;;
67306;Laerm;57661;51.436;5.978;2022-08-27T00:58:30;27.98;27.01;28.99;;
67306;Laerm;57661;51.436;5.978;2022-08-27T00:58:42;27.99;26.95;29.06;;
67306;Laerm;57661;51.436;5.978;2022-08-27T00:58:54;28.01;27.05;29.00;;
67306;Laerm;57661;51.436;5.978;2022-08-27T00:59:05;28.04;27.12;31.39;;
67306;Laerm;57661;51.436;5.978;2022-08-27T00:59:16;28.01;27.20;28.98;;
67306;Laerm;57661;51.436;5.978;2022-08-27T00:59:27;27.99;27.08;29.05;;
67306;Laerm;57661;51.436;5.978;2022-08-27T00:59:41;28.01;27.14;28.84;;
67306;Laerm;57661;51.436;5.978;2022-08-27T00:59:52;27.98;27.10;28.79;;
67306;Laerm;57661;51.436;5.978;2022-08-27T01:00:03;28.03;27.03;29.09;;
67306;Laerm;57661;51.436;5.978;2022-08-27T01:00:15;29.49;27.03;36.32;;
67306;Laerm;57661;51.436;5.978;2022-08-27T01:00:26;27.96;27.03;29.17;;
67306;Laerm;57661;51.436;5.978;2022-08-27T01:00:36;27.96;27.02;28.83;;
67306;Laerm;57661;51.436;5.978;2022-08-27T01:00:47;28.00;27.11;28.83;;
67306;Laerm;57661;51.436;5.978;2022-08-27T01:00:58;27.96;27.06;29.01;;
67306;Laerm;57661;51.436;5.978;2022-08-27T01:01:11;27.99;26.85;28.90;;
67306;Laerm;57661;51.436;5.978;2022-08-27T01:01:23;27.97;26.71;28.83;;
67306;Laerm;57661;51.436;5.978;2022-08-27T01:01:34;27.98;26.95;28.79;;
67306;Laerm;57661;51.436;5.978;2022-08-27T01:02:04;28.00;26.85;28.98;;
67306;Laerm;57661;51.436;5.978;2022-08-27T01:02:30;28.27;26.85;39.93;;
67306;Laerm;57661;51.436;5.978;2022-08-27T01:02:40;28.08;26.93;29.11;;
67306;Laerm;57661;51.436;5.978;2022-08-27T01:02:52;28.10;27.20;29.08;;
67306;Laerm;57661;51.436;5.978;2022-08-27T01:03:03;28.20;27.21;29.30;;
67306;Laerm;57661;51.436;5.978;2022-08-27T01:03:13;28.17;27.21;29.54;;
67306;Laerm;57661;51.436;5.978;2022-08-27T01:03:24;34.94;27.40;54.08;;
67306;Laerm;57661;51.436;5.978;2022-08-27T01:03:37;33.54;27.21;50.50;;
67306;Laerm;57661;51.436;5.978;2022-08-27T01:03:50;44.21;27.62;54.20;;
67306;Laerm;57661;51.436;5.978;2022-08-27T01:04:03;46.58;41.96;50.82;;
67306;Laerm;57661;51.436;5.978;2022-08-27T01:04:14;44.70;29.32;50.65;;
67306;Laerm;57661;51.436;5.978;2022-08-27T01:04:25;28.59;27.46;30.41;;